createdAt,value
2017-12-23T00:01:43.762Z,102972
2017-12-23T00:04:11.994Z,102951
2017-12-23T00:06:40.251Z,102951
2017-12-23T00:09:09.330Z,102947
2017-12-23T00:11:37.602Z,102946
2017-12-23T00:14:05.920Z,102955
2017-12-23T00:16:34.147Z,102930
2017-12-23T00:19:03.175Z,102927
2017-12-23T00:21:31.424Z,102921
2017-12-23T00:24:00.490Z,102921
2017-12-23T00:26:28.749Z,102921
2017-12-23T00:28:57.050Z,102924
2017-12-23T00:31:25.276Z,102927
2017-12-23T00:33:54.457Z,102918
2017-12-23T00:36:22.786Z,102915
2017-12-23T00:38:51.058Z,102912
2017-12-23T00:41:19.335Z,102916
2017-12-23T00:43:47.683Z,102920
2017-12-23T00:46:15.987Z,102918
2017-12-23T00:51:19.280Z,102900
2017-12-23T00:53:48.305Z,102900
2017-12-23T00:56:16.916Z,102899
2017-12-23T00:58:45.213Z,102885
2017-12-23T01:01:14.271Z,102886
2017-12-23T01:03:42.549Z,102885
2017-12-23T01:06:10.873Z,102888
2017-12-23T01:08:39.107Z,102896
2017-12-23T01:11:08.356Z,102905
2017-12-23T01:13:36.683Z,102906
2017-12-23T01:16:05.793Z,102899
2017-12-23T01:18:36.272Z,102882
2017-12-23T01:21:04.564Z,102880
2017-12-23T01:23:32.928Z,102886
2017-12-23T01:26:01.179Z,102895
2017-12-23T01:28:29.468Z,102870
2017-12-23T01:30:57.709Z,102855
2017-12-23T01:33:25.976Z,102858
2017-12-23T01:35:54.997Z,102866
2017-12-23T01:38:23.334Z,102855
2017-12-23T01:40:51.615Z,102853
2017-12-23T01:43:20.656Z,102846
2017-12-23T01:49:00.080Z,102846
2017-12-23T01:51:29.717Z,102843
2017-12-23T01:54:03.883Z,102846
2017-12-23T01:56:35.164Z,102854
2017-12-23T01:59:07.222Z,102850
2017-12-23T02:01:35.557Z,102846
2017-12-23T02:04:04.992Z,102840
2017-12-23T02:06:34.352Z,102832
2017-12-23T02:09:10.556Z,102838
2017-12-23T02:11:40.215Z,102822
2017-12-23T02:14:10.000Z,102820
2017-12-23T02:16:38.422Z,102818
2017-12-23T02:19:06.881Z,102821
2017-12-23T02:21:39.552Z,102808
2017-12-23T02:24:08.064Z,102799
2017-12-23T02:26:38.457Z,102796
2017-12-23T02:29:15.774Z,102769
2017-12-23T02:35:12.223Z,102748
2017-12-23T02:37:45.299Z,102739
2017-12-23T02:47:26.077Z,102745
2017-12-23T02:50:00.735Z,102731
2017-12-23T02:52:40.115Z,102740
2017-12-23T02:55:08.449Z,102733
2017-12-23T02:57:42.005Z,102738
2017-12-23T03:00:11.554Z,102737
2017-12-23T03:02:45.610Z,102731
2017-12-23T03:05:14.675Z,102733
2017-12-23T03:07:49.440Z,102735
2017-12-23T03:10:18.827Z,102736
2017-12-23T03:12:47.109Z,102736
2017-12-23T03:15:18.841Z,102734
2017-12-23T03:17:47.406Z,102728
2017-12-23T03:20:18.015Z,102734
2017-12-23T03:22:51.011Z,102704
2017-12-23T03:25:19.359Z,102693
2017-12-23T03:27:49.599Z,102704
2017-12-23T03:30:18.760Z,102697
2017-12-23T03:32:48.969Z,102689
2017-12-23T03:35:17.298Z,102683
2017-12-23T03:37:49.353Z,102674
2017-12-23T03:40:17.701Z,102666
2017-12-23T03:42:46.550Z,102667
2017-12-23T03:45:14.857Z,102667
2017-12-23T03:47:57.597Z,102653
2017-12-23T03:50:28.095Z,102647
2017-12-23T03:52:56.748Z,102640
2017-12-23T03:55:25.094Z,102625
2017-12-23T03:57:53.392Z,102615
2017-12-23T04:00:22.896Z,102612
2017-12-23T04:02:51.172Z,102604
2017-12-23T04:05:20.976Z,102607
2017-12-23T04:07:50.418Z,102619
2017-12-23T04:13:10.326Z,102619
2017-12-23T04:15:39.762Z,102617
2017-12-23T04:18:08.337Z,102601
2017-12-23T04:20:39.021Z,102597
2017-12-23T04:23:07.340Z,102594
2017-12-23T04:25:36.914Z,102593
2017-12-23T04:28:08.112Z,102585
2017-12-23T04:30:37.552Z,102580
2017-12-23T04:35:48.299Z,102578
2017-12-23T04:38:24.290Z,102566
2017-12-23T04:40:52.684Z,102579
2017-12-23T04:43:21.006Z,102570
2017-12-23T04:45:50.314Z,102568
2017-12-23T04:48:26.377Z,102562
2017-12-23T04:50:55.464Z,102561
2017-12-23T04:53:28.258Z,102550
2017-12-23T04:55:58.360Z,102543
2017-12-23T04:58:28.022Z,102546
2017-12-23T05:00:56.478Z,102539
2017-12-23T05:03:24.811Z,102532
2017-12-23T05:05:55.278Z,102521
2017-12-23T05:08:23.692Z,102528
2017-12-23T05:10:52.058Z,102520
2017-12-23T05:13:20.337Z,102515
2017-12-23T05:15:48.898Z,102514
2017-12-23T05:18:19.877Z,102506
2017-12-23T05:20:48.262Z,102508
2017-12-23T05:23:17.332Z,102503
2017-12-23T05:25:46.710Z,102501
2017-12-23T05:28:16.053Z,102511
2017-12-23T05:30:45.223Z,102506
2017-12-23T05:33:14.347Z,102512
2017-12-23T05:35:51.653Z,102505
2017-12-23T05:38:28.094Z,102497
2017-12-23T05:40:57.414Z,102487
2017-12-23T05:43:25.817Z,102493
2017-12-23T05:46:14.220Z,102488
2017-12-23T05:48:42.601Z,102479
2017-12-23T05:51:11.881Z,102466
2017-12-23T05:54:00.354Z,102464
2017-12-23T05:56:29.574Z,102460
2017-12-23T05:58:57.901Z,102457
2017-12-23T06:01:26.329Z,102440
2017-12-23T06:03:54.848Z,102441
2017-12-23T06:06:23.727Z,102444
2017-12-23T06:08:52.073Z,102440
2017-12-23T06:11:21.492Z,102436
2017-12-23T06:13:54.189Z,102433
2017-12-23T06:16:24.866Z,102435
2017-12-23T06:18:53.174Z,102450
2017-12-23T06:21:21.419Z,102443
2017-12-23T06:23:54.505Z,102431
2017-12-23T06:26:24.023Z,102437
2017-12-23T06:28:57.930Z,102438
2017-12-23T06:31:26.205Z,102422
2017-12-23T06:39:55.789Z,102400
2017-12-23T06:42:24.204Z,102394
2017-12-23T06:44:57.528Z,102391
2017-12-23T06:47:27.581Z,102385
2017-12-23T06:49:59.413Z,102389
2017-12-23T06:52:33.742Z,102384
2017-12-23T06:57:37.692Z,102387
2017-12-23T07:00:06.068Z,102373
2017-12-23T07:02:34.374Z,102371
2017-12-23T07:05:03.442Z,102375
2017-12-23T07:07:31.696Z,102383
2017-12-23T07:09:59.984Z,102392
2017-12-23T07:12:28.305Z,102392
2017-12-23T07:14:57.293Z,102389
2017-12-23T07:17:26.288Z,102391
2017-12-23T07:19:55.863Z,102378
2017-12-23T07:22:31.778Z,102395
2017-12-23T07:25:00.748Z,102383
2017-12-23T07:27:31.103Z,102391
2017-12-23T07:30:00.218Z,102389
2017-12-23T07:32:28.482Z,102385
2017-12-23T07:34:56.750Z,102377
2017-12-23T07:37:38.144Z,102386
2017-12-23T07:40:09.425Z,102368
2017-12-23T07:42:39.858Z,102365
2017-12-23T07:45:17.761Z,102367
2017-12-23T07:47:46.146Z,102375
2017-12-23T07:50:14.416Z,102378
2017-12-23T07:53:04.693Z,102376
2017-12-23T08:14:33.016Z,102404
2017-12-23T08:17:01.333Z,102394
2017-12-23T08:19:29.630Z,102400
2017-12-23T08:21:57.927Z,102393
2017-12-23T08:24:27.010Z,102387
2017-12-23T08:26:56.050Z,102375
2017-12-23T08:29:24.327Z,102361
2017-12-23T08:31:52.601Z,102361
2017-12-23T08:34:20.897Z,102361
2017-12-23T08:36:49.230Z,102371
2017-12-23T08:39:18.260Z,102369
2017-12-23T08:41:46.519Z,102383
2017-12-23T08:44:14.777Z,102369
2017-12-23T08:46:43.860Z,102362
2017-12-23T08:49:12.914Z,102364
2017-12-23T08:51:41.269Z,102392
2017-12-23T08:54:09.542Z,102393
2017-12-23T08:56:37.807Z,102398
2017-12-23T08:59:06.082Z,102391
2017-12-23T09:01:34.320Z,102394
2017-12-23T09:04:03.060Z,102389
2017-12-23T09:06:31.300Z,102400
2017-12-23T09:08:59.606Z,102397
2017-12-23T09:11:27.910Z,102396
2017-12-23T09:13:56.248Z,102403
2017-12-23T09:16:24.544Z,102398
2017-12-23T09:18:52.777Z,102400
2017-12-23T09:21:21.830Z,102395
2017-12-23T09:23:50.170Z,102394
2017-12-23T09:26:18.441Z,102394
2017-12-23T09:28:46.713Z,102401
2017-12-23T09:31:15.005Z,102390
2017-12-23T09:33:43.477Z,102387
2017-12-23T09:36:11.828Z,102413
2017-12-23T09:38:41.948Z,102387
2017-12-23T09:41:11.046Z,102381
2017-12-23T09:43:40.228Z,102363
2017-12-23T09:46:10.728Z,102383
2017-12-23T09:48:43.838Z,102367
2017-12-23T09:51:13.207Z,102357
2017-12-23T09:53:42.595Z,102345
2017-12-23T09:56:11.704Z,102357
2017-12-23T09:58:40.152Z,102352
2017-12-23T10:01:08.847Z,102355
2017-12-23T10:03:37.438Z,102359
2017-12-23T10:06:06.704Z,102348
2017-12-23T10:08:35.010Z,102345
2017-12-23T10:11:03.255Z,102342
2017-12-23T10:13:32.332Z,102332
2017-12-23T10:16:00.647Z,102335
2017-12-23T10:18:28.983Z,102331
2017-12-23T10:20:57.328Z,102331
2017-12-23T10:23:25.599Z,102321
2017-12-23T10:25:54.032Z,102329
2017-12-23T10:28:23.123Z,102317
2017-12-23T10:30:52.171Z,102332
2017-12-23T10:33:20.446Z,102318
2017-12-23T10:35:48.744Z,102308
2017-12-23T10:38:17.503Z,102316
2017-12-23T10:40:45.839Z,102311
2017-12-23T10:43:14.875Z,102316
2017-12-23T10:45:43.150Z,102305
2017-12-23T10:48:12.260Z,102302
2017-12-23T10:50:41.022Z,102298
2017-12-23T10:53:09.305Z,102292
2017-12-23T10:55:37.595Z,102290
2017-12-23T10:58:06.039Z,102280
2017-12-23T11:00:34.404Z,102282
2017-12-23T11:03:02.721Z,102278
2017-12-23T11:05:31.024Z,102271
2017-12-23T11:07:59.312Z,102267
2017-12-23T11:10:28.422Z,102268
2017-12-23T11:12:58.704Z,102265
2017-12-23T11:15:27.045Z,102256
2017-12-23T11:17:55.331Z,102262
2017-12-23T11:20:24.595Z,102247
2017-12-23T11:22:52.887Z,102255
2017-12-23T11:25:21.256Z,102252
2017-12-23T11:27:49.578Z,102260
2017-12-23T11:30:17.891Z,102253
2017-12-23T11:32:46.176Z,102242
2017-12-23T11:35:15.331Z,102253
2017-12-23T11:37:43.700Z,102256
2017-12-23T11:40:12.004Z,102240
2017-12-23T11:42:41.102Z,102238
2017-12-23T11:45:10.289Z,102231
2017-12-23T11:47:38.618Z,102234
2017-12-23T11:50:06.965Z,102240
2017-12-23T11:52:35.955Z,102239
2017-12-23T11:55:04.968Z,102230
2017-12-23T11:57:33.276Z,102230
2017-12-23T12:00:01.628Z,102224
2017-12-23T12:02:30.684Z,102218
2017-12-23T12:05:00.142Z,102213
2017-12-23T12:07:29.724Z,102203
2017-12-23T12:09:58.132Z,102204
2017-12-23T12:12:26.407Z,102201
2017-12-23T12:15:15.558Z,102195
2017-12-23T12:17:43.947Z,102210
2017-12-23T12:20:14.560Z,102213
2017-12-23T12:22:44.920Z,102207
2017-12-23T12:25:14.192Z,102204
2017-12-23T12:27:43.594Z,102210
2017-12-23T12:30:34.349Z,102205
2017-12-23T12:33:04.414Z,102200
2017-12-23T12:35:35.139Z,102205
2017-12-23T12:38:07.573Z,102200
2017-12-23T12:40:36.864Z,102199
2017-12-23T12:49:09.661Z,102209
2017-12-23T12:51:44.203Z,102202
2017-12-23T13:00:59.210Z,102195
2017-12-23T13:03:28.999Z,102188
2017-12-23T13:46:32.312Z,102141
2017-12-23T13:49:01.224Z,102138
2017-12-23T13:51:29.830Z,102145
2017-12-23T13:53:58.233Z,102138
2017-12-23T13:56:27.561Z,102144
2017-12-23T13:58:56.830Z,102147
2017-12-23T14:01:25.316Z,102144
2017-12-23T14:03:54.500Z,102148
2017-12-23T14:06:23.716Z,102145
2017-12-23T14:08:52.165Z,102146
2017-12-23T14:11:20.647Z,102149
2017-12-23T14:13:49.135Z,102146
2017-12-23T14:16:17.512Z,102145
2017-12-23T14:18:45.901Z,102159
2017-12-23T14:21:14.320Z,102152
2017-12-23T14:23:42.793Z,102146
2017-12-23T14:26:11.232Z,102145
2017-12-23T14:28:39.715Z,102144
2017-12-23T14:31:08.724Z,102140
2017-12-23T14:33:37.005Z,102153
2017-12-23T14:36:05.323Z,102144
2017-12-23T14:38:33.609Z,102149
2017-12-23T14:41:01.967Z,102145
2017-12-23T14:43:30.272Z,102147
2017-12-23T14:45:58.604Z,102144
2017-12-23T14:48:26.987Z,102140
2017-12-23T14:50:55.299Z,102132
2017-12-23T14:57:04.318Z,102115
2017-12-23T14:59:56.751Z,102127
2017-12-23T15:02:34.442Z,102114
2017-12-23T15:07:49.797Z,102101
2017-12-23T15:10:18.107Z,102104
2017-12-23T15:12:46.324Z,102098
2017-12-23T15:15:16.204Z,102088
2017-12-23T15:17:44.472Z,102095
2017-12-23T15:20:12.819Z,102079
2017-12-23T15:26:10.630Z,102072
2017-12-23T15:28:38.919Z,102077
2017-12-23T15:31:07.464Z,102091
2017-12-23T15:33:35.767Z,102088
2017-12-23T15:36:04.082Z,102103
2017-12-23T15:38:32.374Z,102087
2017-12-23T15:41:00.682Z,102094
2017-12-23T15:43:29.765Z,102096
2017-12-23T15:45:59.969Z,102091
2017-12-23T15:48:28.383Z,102089
2017-12-23T15:50:56.665Z,102085
2017-12-23T15:53:24.960Z,102075
2017-12-23T15:55:53.349Z,102081
2017-12-23T15:58:21.659Z,102077
2017-12-23T16:00:50.090Z,102073
2017-12-23T16:03:18.441Z,102073
2017-12-23T16:05:47.597Z,102079
2017-12-23T16:08:15.844Z,102063
2017-12-23T16:10:44.630Z,102060
2017-12-23T16:13:12.912Z,102070
2017-12-23T16:15:41.206Z,102063
2017-12-23T16:18:09.517Z,102057
2017-12-23T16:20:38.553Z,102050
2017-12-23T16:23:06.866Z,102051
2017-12-23T16:25:35.206Z,102061
2017-12-23T16:28:03.536Z,102055
2017-12-23T16:30:32.723Z,102055
2017-12-23T16:33:01.107Z,102047
2017-12-23T16:35:29.372Z,102038
2017-12-23T16:37:57.646Z,102039
2017-12-23T16:40:26.052Z,102045
2017-12-23T16:42:55.074Z,102030
2017-12-23T16:45:23.346Z,102034
2017-12-23T16:47:52.173Z,102035
2017-12-23T16:50:20.478Z,102049
2017-12-23T16:52:49.821Z,102038
2017-12-23T16:55:18.143Z,102033
2017-12-23T16:57:46.560Z,102025
2017-12-23T17:00:14.815Z,102023
2017-12-23T17:02:43.867Z,102013
2017-12-23T17:05:12.179Z,102020
2017-12-23T17:07:40.471Z,102029
2017-12-23T17:10:08.744Z,102018
2017-12-23T17:12:37.864Z,102015
2017-12-23T17:15:06.120Z,102007
2017-12-23T17:17:34.383Z,102005
2017-12-23T17:20:02.636Z,102011
2017-12-23T17:22:30.907Z,102000
2017-12-23T17:25:00.201Z,102000
2017-12-23T17:27:28.441Z,101996
2017-12-23T17:30:14.533Z,101993
2017-12-23T17:32:42.843Z,101994
2017-12-23T17:35:11.170Z,101970
2017-12-23T17:37:39.483Z,101974
2017-12-23T17:40:07.810Z,101975
2017-12-23T17:42:36.811Z,101971
2017-12-23T17:45:05.154Z,101968
2017-12-23T17:47:33.546Z,101982
2017-12-23T17:50:02.798Z,101964
2017-12-23T17:52:31.141Z,101991
2017-12-23T17:54:59.447Z,101978
2017-12-23T17:57:27.729Z,101978
2017-12-23T17:59:55.968Z,101968
2017-12-23T18:02:24.178Z,101974
2017-12-23T18:04:52.410Z,101972
2017-12-23T18:07:20.687Z,101972
2017-12-23T18:09:49.099Z,101985
2017-12-23T18:12:17.326Z,101985
2017-12-23T18:14:45.546Z,101982
2017-12-23T18:17:13.788Z,101985
2017-12-23T18:19:42.019Z,101973
2017-12-23T18:22:10.263Z,101984
2017-12-23T18:24:38.487Z,101986
2017-12-23T18:27:07.481Z,101978
2017-12-23T18:29:35.784Z,101973
2017-12-23T18:32:04.132Z,102012
2017-12-23T18:34:32.328Z,102000
2017-12-23T18:37:00.651Z,101988
2017-12-23T18:39:28.894Z,102006
2017-12-23T18:41:57.109Z,102006
2017-12-23T18:44:25.399Z,102000
2017-12-23T18:46:53.654Z,102003
2017-12-23T18:49:21.931Z,102004
2017-12-23T18:51:50.166Z,102018
2017-12-23T18:54:18.385Z,102006
2017-12-23T18:56:46.668Z,102000
2017-12-23T18:59:14.896Z,102006
2017-12-23T19:01:43.158Z,102010
2017-12-23T19:04:11.403Z,101988
2017-12-23T19:06:39.640Z,101993
2017-12-23T19:09:07.871Z,101990
2017-12-23T19:11:36.877Z,101984
2017-12-23T19:14:05.337Z,101983
2017-12-23T19:16:52.048Z,101975
2017-12-23T19:19:21.089Z,101986
2017-12-23T19:21:49.348Z,101977
2017-12-23T19:24:17.599Z,101987
2017-12-23T19:26:46.438Z,101973
2017-12-23T19:29:14.738Z,101974
2017-12-23T19:31:43.767Z,101972
2017-12-23T19:34:13.934Z,101975
2017-12-23T19:36:43.182Z,101968
2017-12-23T19:39:11.607Z,101955
2017-12-23T19:41:39.868Z,101957
2017-12-23T19:44:08.122Z,101950
2017-12-23T19:46:37.155Z,101957
2017-12-23T19:49:05.401Z,101956
2017-12-23T19:51:33.714Z,101948
2017-12-23T19:54:02.195Z,101942
2017-12-23T19:56:30.465Z,101948
2017-12-23T19:58:58.784Z,101950
2017-12-23T20:01:27.165Z,101952
2017-12-23T20:03:55.427Z,101946
2017-12-23T20:06:23.814Z,101951
2017-12-23T20:08:52.066Z,101931
2017-12-23T20:11:21.100Z,101945
2017-12-23T20:13:49.361Z,101940
2017-12-23T20:16:17.672Z,101958
2017-12-23T20:18:45.916Z,101942
2017-12-23T20:21:14.279Z,101947
2017-12-23T20:23:42.619Z,101936
2017-12-23T20:26:10.914Z,101938
2017-12-23T20:28:39.217Z,101943
2017-12-23T20:31:07.531Z,101944
2017-12-23T20:33:35.839Z,101926
2017-12-23T20:36:04.869Z,101933
2017-12-23T20:38:33.145Z,101931
2017-12-23T20:41:01.420Z,101938
2017-12-23T20:43:29.773Z,101925
2017-12-23T20:45:58.072Z,101937
2017-12-23T20:48:26.321Z,101930
2017-12-23T20:50:55.362Z,101942
2017-12-23T20:53:23.607Z,101954
2017-12-23T20:55:51.862Z,101946
2017-12-23T20:58:20.116Z,101933
2017-12-23T21:00:48.363Z,101930
2017-12-23T21:03:16.723Z,101932
2017-12-23T21:05:44.986Z,101933
2017-12-23T21:08:13.256Z,101932
2017-12-23T21:10:41.509Z,101952
2017-12-23T21:13:09.815Z,101938
2017-12-23T21:15:38.198Z,101918
2017-12-23T21:18:06.680Z,101916
2017-12-23T21:20:34.957Z,101910
2017-12-23T21:23:03.191Z,101918
2017-12-23T21:25:32.224Z,101917
2017-12-23T21:28:00.567Z,101911
2017-12-23T21:30:29.582Z,101906
2017-12-23T21:32:57.839Z,101905
2017-12-23T21:35:26.122Z,101894
2017-12-23T21:37:54.427Z,101899
2017-12-23T21:40:22.687Z,101895
2017-12-23T21:42:50.960Z,101887
2017-12-23T21:45:19.191Z,101882
2017-12-23T21:47:47.463Z,101894
2017-12-23T21:50:15.760Z,101903
2017-12-23T21:52:44.792Z,101911
2017-12-23T21:55:13.129Z,101904
2017-12-23T21:57:42.176Z,101923
2017-12-23T22:00:10.499Z,101914
2017-12-23T22:02:39.538Z,101920
2017-12-23T22:05:07.853Z,101917
2017-12-23T22:07:36.138Z,101899
2017-12-23T22:10:04.434Z,101908
2017-12-23T22:12:32.819Z,101900
2017-12-23T22:15:01.077Z,101908
2017-12-23T22:17:30.107Z,101904
2017-12-23T22:19:59.161Z,101896
2017-12-23T22:22:29.239Z,101899
2017-12-23T22:24:57.504Z,101888
2017-12-23T22:27:25.774Z,101880
2017-12-23T22:29:54.008Z,101874
2017-12-23T22:32:22.333Z,101872
2017-12-23T22:34:50.723Z,101874
2017-12-23T22:37:19.031Z,101883
2017-12-23T22:39:48.588Z,101865
2017-12-23T22:42:34.684Z,101863
2017-12-23T22:45:03.022Z,101872
2017-12-23T22:47:31.299Z,101865
2017-12-23T22:49:59.581Z,101869
2017-12-23T22:52:28.581Z,101872
2017-12-23T22:54:56.992Z,101856
2017-12-23T22:57:25.251Z,101856
2017-12-23T22:59:53.614Z,101855
2017-12-23T23:02:21.923Z,101869
2017-12-23T23:04:50.243Z,101861
2017-12-23T23:07:18.557Z,101880
2017-12-23T23:09:47.774Z,101881
2017-12-23T23:15:26.710Z,101897
2017-12-23T23:17:57.147Z,101888
2017-12-23T23:20:25.408Z,101904
2017-12-23T23:22:53.764Z,101896
2017-12-23T23:25:22.609Z,101913
2017-12-23T23:27:50.975Z,101894
2017-12-23T23:30:19.198Z,101895
2017-12-23T23:32:47.457Z,101898
2017-12-23T23:35:15.759Z,101886
2017-12-23T23:37:44.192Z,101894
2017-12-23T23:40:12.498Z,101890
2017-12-23T23:42:40.912Z,101898
2017-12-23T23:45:09.144Z,101878
2017-12-23T23:47:38.189Z,101889
2017-12-23T23:50:06.441Z,101870
2017-12-23T23:52:34.811Z,101870
2017-12-23T23:55:03.053Z,101861
2017-12-23T23:57:32.125Z,101869
